Time;durP1;ratioP1;P1;durP2;ratioP2;P2;SDS_P1;SDS_P2;PMS_P1;PMS_P2;Temp;Humidity;BMP_temperature;BMP_pressure;BME280_temperature;BME280_humidity;BME280_pressure;Samples;Min_cycle;Max_cycle;Signal;HPM_P1;HPM_P2
2023/10/24 00:00:03;;;;;;;17.70;13.15;;;;;;;11.48;100.00;100184.91;5017247;28;20404;-67
2023/10/24 00:02:28;;;;;;;19.52;13.43;;;;;;;11.52;100.00;100185.34;5022281;28;20030;-67
2023/10/24 00:04:54;;;;;;;17.50;13.05;;;;;;;11.54;100.00;100179.84;5021991;28;20520;-67
2023/10/24 00:07:19;;;;;;;24.65;14.07;;;;;;;11.53;100.00;100175.53;5021295;28;20025;-67
2023/10/24 00:09:44;;;;;;;16.45;13.05;;;;;;;11.56;100.00;100172.50;5019641;28;20021;-67
2023/10/24 00:12:10;;;;;;;20.48;13.00;;;;;;;11.54;100.00;100166.53;5013328;28;20022;-67
2023/10/24 00:14:35;;;;;;;17.42;12.90;;;;;;;11.51;100.00;100174.91;5018881;28;20036;-67
2023/10/24 00:17:00;;;;;;;17.55;13.02;;;;;;;11.58;100.00;100183.78;5020153;28;20022;-67
2023/10/24 00:19:25;;;;;;;19.00;13.02;;;;;;;11.55;100.00;100176.16;5018994;28;20036;-67
2023/10/24 00:21:51;;;;;;;16.40;12.13;;;;;;;11.56;100.00;100177.81;5018177;28;20083;-67
2023/10/24 00:24:16;;;;;;;20.48;12.35;;;;;;;11.53;100.00;100172.88;5020227;28;20025;-67
2023/10/24 00:26:41;;;;;;;17.88;12.30;;;;;;;11.53;100.00;100171.03;5024848;28;20079;-67
2023/10/24 00:29:06;;;;;;;17.50;11.98;;;;;;;11.48;100.00;100157.50;5022333;28;20064;-67
2023/10/24 00:31:32;;;;;;;14.48;11.30;;;;;;;11.53;100.00;100172.88;5019772;28;20025;-67
2023/10/24 00:33:57;;;;;;;18.83;11.63;;;;;;;11.52;100.00;100176.56;5023115;28;20041;-67
2023/10/24 00:36:22;;;;;;;15.82;11.23;;;;;;;11.45;100.00;100157.91;5020677;28;20022;-68
2023/10/24 00:38:47;;;;;;;14.90;10.82;;;;;;;11.53;100.00;100176.34;5023883;28;20710;-67
2023/10/24 00:41:13;;;;;;;15.30;10.70;;;;;;;11.50;100.00;100171.44;5024399;28;20048;-67
2023/10/24 00:43:38;;;;;;;12.77;10.10;;;;;;;11.48;100.00;100171.63;5022584;28;20061;-67
2023/10/24 00:46:04;;;;;;;16.13;10.30;;;;;;;11.49;100.00;100169.78;5024880;28;20090;-67
2023/10/24 00:48:30;;;;;;;16.50;10.32;;;;;;;11.47;100.00;100175.31;5018292;28;20032;-67
2023/10/24 00:50:55;;;;;;;16.23;9.82;;;;;;;11.48;100.00;100174.28;5025925;28;20032;-66
2023/10/24 00:53:21;;;;;;;16.15;9.77;;;;;;;11.47;100.00;100180.63;5019392;28;20029;-67
2023/10/24 00:55:47;;;;;;;15.90;10.20;;;;;;;11.46;100.00;100178.16;5016617;28;20041;-67
2023/10/24 00:58:13;;;;;;;12.73;9.05;;;;;;;11.41;100.00;100184.06;5022745;28;20063;-67
2023/10/24 01:00:41;;;;;;;11.77;8.73;;;;;;;11.42;100.00;100185.69;5026113;28;20061;-67
2023/10/24 01:03:07;;;;;;;14.63;9.45;;;;;;;11.44;100.00;100188.97;5020450;28;20041;-67
2023/10/24 01:05:32;;;;;;;12.07;8.52;;;;;;;11.43;100.00;100181.19;5026535;28;20030;-67
2023/10/24 01:07:58;;;;;;;11.32;8.20;;;;;;;11.42;100.00;100179.56;5020118;28;20037;-67
2023/10/24 01:10:23;;;;;;;12.88;8.35;;;;;;;11.39;100.00;100178.09;5019483;28;20025;-67
2023/10/24 01:12:48;;;;;;;10.50;7.90;;;;;;;11.40;100.00;100179.75;5020851;28;20025;-67
2023/10/24 01:15:13;;;;;;;12.45;7.70;;;;;;;11.39;100.00;100175.44;5022103;28;20029;-67
2023/10/24 01:17:49;;;;;;;13.45;7.97;;;;;;;11.40;100.00;100182.41;5019323;28;20031;-67
2023/10/24 01:20:15;;;;;;;11.05;7.05;;;;;;;11.38;100.00;100167.66;5019997;28;20033;-67
2023/10/24 01:22:41;;;;;;;10.75;7.43;;;;;;;11.39;100.00;100169.31;5017805;28;20030;-67
2023/10/24 01:25:12;;;;;;;8.90;7.35;;;;;;;11.36;100.00;100167.03;5014495;28;20031;-67
2023/10/24 01:27:39;;;;;;;9.20;7.05;;;;;;;11.37;100.00;100171.34;5016894;28;20148;-67
2023/10/24 01:30:05;;;;;;;9.98;6.40;;;;;;;11.35;100.00;100176.84;5018624;28;20499;-67
2023/10/24 01:32:31;;;;;;;8.88;6.03;;;;;;;11.31;100.00;100164.13;5024858;28;20025;-67
2023/10/24 01:34:56;;;;;;;9.13;6.28;;;;;;;11.34;100.00;100183.19;5021303;28;20028;-67
2023/10/24 01:37:21;;;;;;;9.60;6.47;;;;;;;11.32;100.00;100177.22;5025822;28;20025;-67
2023/10/24 01:39:47;;;;;;;10.27;5.78;;;;;;;11.34;100.00;100183.19;5013523;28;20136;-66
2023/10/24 01:42:12;;;;;;;11.80;6.00;;;;;;;11.33;100.00;100176.22;5015955;28;20040;-67
2023/10/24 01:44:37;;;;;;;9.98;5.63;;;;;;;11.32;100.00;100171.09;5021209;28;20087;-67
2023/10/24 01:47:02;;;;;;;6.68;5.50;;;;;;;11.31;100.00;100183.56;5014971;28;20037;-67
2023/10/24 01:49:28;;;;;;;7.82;5.45;;;;;;;11.31;100.00;100177.44;5022965;28;20017;-67
2023/10/24 01:51:53;;;;;;;9.18;5.85;;;;;;;11.31;100.00;100172.09;5026679;28;20037;-67
2023/10/24 01:54:19;;;;;;;7.40;5.10;;;;;;;11.29;100.00;100171.47;5019765;28;20077;-67
2023/10/24 01:56:44;;;;;;;9.90;5.53;;;;;;;11.27;100.00;100171.66;5025000;28;20079;-66
2023/10/24 01:59:09;;;;;;;7.05;5.22;;;;;;;11.23;100.00;100158.94;5021770;28;20049;-67
2023/10/24 02:01:34;;;;;;;6.70;5.38;;;;;;;11.27;100.00;100165.50;5018947;28;20021;-66
2023/10/24 02:04:00;;;;;;;6.68;5.32;;;;;;;11.26;100.00;100164.69;5024221;28;20036;-67
2023/10/24 02:06:25;;;;;;;9.90;5.63;;;;;;;11.24;100.00;100157.91;5014333;28;20030;-67
2023/10/24 02:08:51;;;;;;;5.93;4.93;;;;;;;11.23;100.00;100167.72;5022543;28;20030;-67
2023/10/24 02:11:16;;;;;;;8.95;5.93;;;;;;;11.22;100.00;100154.63;5013369;28;20436;-67
2023/10/24 02:13:42;;;;;;;7.93;5.53;;;;;;;11.22;100.00;100158.13;5020378;28;20021;-67
2023/10/24 02:16:07;;;;;;;8.40;5.78;;;;;;;11.21;100.00;100172.41;5016442;28;20079;-67
2023/10/24 02:18:32;;;;;;;7.53;5.82;;;;;;;11.21;100.00;100171.59;5028562;28;20386;-66
2023/10/24 02:20:57;;;;;;;8.43;6.43;;;;;;;11.20;100.00;100165.47;5021346;28;20544;-67
2023/10/24 02:23:23;;;;;;;6.63;5.45;;;;;;;11.18;100.00;100168.31;5021833;28;20109;-66
2023/10/24 02:25:48;;;;;;;6.60;5.82;;;;;;;11.17;100.00;100169.31;5020613;28;20018;-67
2023/10/24 02:28:13;;;;;;;7.20;6.10;;;;;;;11.18;100.00;100170.16;5024248;28;20656;-67
2023/10/24 02:30:39;;;;;;;8.73;6.10;;;;;;;11.15;100.00;100167.88;5021698;28;20028;-67
2023/10/24 02:33:04;;;;;;;8.65;6.45;;;;;;;11.14;100.00;100166.22;5021699;28;20494;-67
2023/10/24 02:35:29;;;;;;;7.93;6.05;;;;;;;11.14;100.00;100171.53;5014591;28;20025;-66
2023/10/24 02:37:55;;;;;;;9.25;5.85;;;;;;;11.09;100.00;100168.63;5016937;28;20033;-67
2023/10/24 02:40:20;;;;;;;8.30;6.05;;;;;;;11.10;100.00;100172.94;5019613;28;20044;-67
2023/10/24 02:42:45;;;;;;;6.65;5.95;;;;;;;11.11;100.00;100174.59;5016618;28;20119;-67
2023/10/24 02:45:10;;;;;;;8.95;6.00;;;;;;;11.08;100.00;100175.78;5019785;28;20022;-67
2023/10/24 02:47:36;;;;;;;7.43;5.97;;;;;;;11.05;100.00;100167.38;5030753;28;20053;-67
2023/10/24 02:50:01;;;;;;;6.38;5.40;;;;;;;11.06;100.00;100174.34;5018033;28;20504;-67
2023/10/24 02:52:29;;;;;;;9.73;5.97;;;;;;;11.07;100.00;100186.59;5014218;28;20037;-67
2023/10/24 02:54:54;;;;;;;6.18;5.53;;;;;;;11.07;100.00;100183.94;5014193;28;20032;-67
2023/10/24 02:57:19;;;;;;;6.13;5.53;;;;;;;11.07;100.00;100186.59;5018959;28;20037;-67
2023/10/24 02:59:45;;;;;;;7.50;5.75;;;;;;;11.03;100.00;100190.66;5025448;28;20026;-67
2023/10/24 03:02:10;;;;;;;7.88;5.60;;;;;;;11.05;100.00;100193.94;5020236;28;20025;-67
2023/10/24 03:04:35;;;;;;;6.30;5.22;;;;;;;11.02;100.00;100196.97;5013213;28;20026;-67
2023/10/24 03:07:01;;;;;;;5.10;4.60;;;;;;;10.96;100.00;100187.09;5011888;28;20068;-66
2023/10/24 03:09:26;;;;;;;6.55;4.80;;;;;;;11.02;100.00;100197.81;5019501;28;20028;-67
2023/10/24 03:11:51;;;;;;;5.35;4.50;;;;;;;11.00;100.00;100197.19;5015661;28;20030;-67
2023/10/24 03:14:17;;;;;;;4.85;4.35;;;;;;;11.00;100.00;100196.34;5018586;28;20088;-66
2023/10/24 03:16:42;;;;;;;5.45;4.45;;;;;;;10.97;100.00;100194.03;5017724;28;20029;-67
2023/10/24 03:19:07;;;;;;;5.93;4.72;;;;;;;10.94;100.00;100191.78;5021218;28;20048;-66
2023/10/24 03:21:33;;;;;;;5.88;4.75;;;;;;;10.95;100.00;100201.38;5020696;28;20495;-66
2023/10/24 03:23:58;;;;;;;5.38;4.68;;;;;;;10.93;100.00;100198.09;5015765;28;20030;-67
2023/10/24 03:26:23;;;;;;;5.63;4.93;;;;;;;10.93;100.00;100200.75;5026127;28;20033;-66
2023/10/24 03:28:48;;;;;;;5.00;4.50;;;;;;;10.92;100.00;100209.72;5017070;28;20041;-66
2023/10/24 03:31:14;;;;;;;6.00;4.85;;;;;;;10.90;100.00;100204.63;5020092;28;20025;-66
2023/10/24 03:33:39;;;;;;;5.70;4.55;;;;;;;10.90;100.00;100201.13;5014724;28;20066;-66
2023/10/24 03:36:11;;;;;;;5.72;5.13;;;;;;;10.88;100.00;100200.50;5015070;28;20039;-66
2023/10/24 03:38:36;;;;;;;5.38;4.88;;;;;;;10.85;100.00;100204.34;5017906;28;20025;-67
2023/10/24 03:41:01;;;;;;;5.68;5.15;;;;;;;10.84;100.00;100206.19;5015183;28;20506;-66
2023/10/24 03:43:27;;;;;;;6.25;5.65;;;;;;;10.84;100.00;100200.88;5015646;28;20021;-66
2023/10/24 03:45:52;;;;;;;5.72;5.00;;;;;;;10.83;100.00;100201.88;5023072;28;20033;-66
2023/10/24 03:48:17;;;;;;;6.55;5.15;;;;;;;10.82;100.00;100192.28;5018725;28;20017;-67
2023/10/24 03:50:42;;;;;;;6.00;5.20;;;;;;;10.82;100.00;100194.09;5025397;28;20111;-67
2023/10/24 03:53:08;;;;;;;5.90;5.20;;;;;;;10.81;100.00;100189.81;5023371;28;20103;-66
2023/10/24 03:55:34;;;;;;;7.45;5.45;;;;;;;10.78;100.00;100198.97;5013451;28;20044;-67
2023/10/24 03:57:59;;;;;;;7.57;5.45;;;;;;;10.79;100.00;100205.94;5016374;28;20041;-66
2023/10/24 04:00:25;;;;;;;6.53;5.78;;;;;;;10.79;100.00;100208.59;5014198;28;20026;-67
2023/10/24 04:02:51;;;;;;;6.10;5.50;;;;;;;10.77;100.00;100205.31;5008623;28;20029;-66
2023/10/24 04:05:16;;;;;;;6.63;5.93;;;;;;;10.79;100.00;100210.44;5018996;28;20078;-66
2023/10/24 04:07:42;;;;;;;7.28;6.00;;;;;;;10.77;100.00;100210.63;5029882;28;20029;-67
2023/10/24 04:10:07;;;;;;;7.13;6.00;;;;;;;10.78;100.00;100204.28;5014787;28;20056;-66
2023/10/24 04:12:33;;;;;;;7.28;5.97;;;;;;;10.76;100.00;100211.63;5020914;28;20029;-67
2023/10/24 04:14:58;;;;;;;7.97;6.45;;;;;;;10.74;100.00;100200.38;5014715;28;20031;-67
2023/10/24 04:17:23;;;;;;;6.47;5.75;;;;;;;10.67;100.00;100185.34;5013759;28;20557;-66
2023/10/24 04:19:48;;;;;;;6.70;5.93;;;;;;;10.74;100.00;100200.38;5013691;28;20025;-66
2023/10/24 04:22:14;;;;;;;6.55;5.75;;;;;;;10.74;100.00;100197.72;5013236;28;20022;-66
2023/10/24 04:24:39;;;;;;;7.38;6.20;;;;;;;10.71;100.00;100187.47;5020673;28;20022;-67
2023/10/24 04:27:04;;;;;;;7.10;6.40;;;;;;;10.70;100.00;100183.16;5023268;28;20033;-67
2023/10/24 04:29:31;;;;;;;6.50;5.80;;;;;;;10.72;100.00;100170.53;5019907;28;20022;-66
2023/10/24 04:31:56;;;;;;;7.80;6.18;;;;;;;10.71;100.00;100182.16;5012541;28;20454;-67
2023/10/24 04:34:21;;;;;;;7.97;6.60;;;;;;;10.69;100.00;100170.88;5018477;28;20105;-66
2023/10/24 04:36:47;;;;;;;6.40;5.80;;;;;;;10.68;100.00;100166.56;5015192;28;20030;-66
2023/10/24 04:39:12;;;;;;;7.97;6.80;;;;;;;10.68;100.00;100163.91;5024303;28;20866;-66
2023/10/24 04:41:37;;;;;;;6.63;6.03;;;;;;;10.65;100.00;100161.63;5015584;28;20029;-66
2023/10/24 04:44:03;;;;;;;7.47;6.70;;;;;;;10.67;100.00;100164.09;5014797;28;20104;-66
2023/10/24 04:46:29;;;;;;;7.03;6.25;;;;;;;10.66;100.00;100168.59;5012352;28;20105;-66
2023/10/24 04:48:54;;;;;;;7.43;6.68;;;;;;;10.65;100.00;100161.63;5020172;28;20045;-67
2023/10/24 04:51:19;;;;;;;7.30;6.57;;;;;;;10.65;100.00;100160.81;5011826;28;20029;-66
2023/10/24 04:53:45;;;;;;;7.18;6.35;;;;;;;10.65;100.00;100166.94;5020850;28;20028;-66
2023/10/24 04:56:10;;;;;;;7.40;6.53;;;;;;;10.64;100.00;100165.31;5013219;28;20022;-66
2023/10/24 04:58:36;;;;;;;6.97;6.28;;;;;;;10.64;100.00;100169.78;5015444;28;20505;-66
2023/10/24 05:01:01;;;;;;;8.30;6.80;;;;;;;10.63;100.00;100174.28;5011660;28;20030;-66
2023/10/24 05:03:26;;;;;;;8.70;6.70;;;;;;;10.64;100.00;100165.31;5014179;28;20539;-66
2023/10/24 05:05:52;;;;;;;7.95;6.88;;;;;;;10.63;100.00;100171.63;5016135;28;20029;-66
2023/10/24 05:08:17;;;;;;;7.82;6.78;;;;;;;10.60;100.00;100169.34;5015326;28;20025;-66
2023/10/24 05:10:42;;;;;;;9.07;7.13;;;;;;;10.61;100.00;100170.16;5019485;28;20025;-66
2023/10/24 05:13:08;;;;;;;7.40;6.70;;;;;;;10.62;100.00;100166.50;5017591;28;20030;-66
2023/10/24 05:15:33;;;;;;;6.80;6.20;;;;;;;10.61;100.00;100171.00;5017249;28;20018;-67
2023/10/24 05:17:58;;;;;;;8.10;6.47;;;;;;;10.61;100.00;100172.81;5018540;28;20025;-66
2023/10/24 05:20:24;;;;;;;7.13;6.43;;;;;;;10.57;100.00;100168.91;5020084;28;20408;-67
2023/10/24 05:22:49;;;;;;;8.15;6.68;;;;;;;10.58;100.00;100171.38;5020316;28;20017;-66
2023/10/24 05:25:16;;;;;;;7.35;6.60;;;;;;;10.57;100.00;100172.38;5018770;28;20587;-66
2023/10/24 05:27:42;;;;;;;8.63;6.78;;;;;;;10.57;100.00;100190.97;5020798;28;20047;-66
2023/10/24 05:30:07;;;;;;;7.68;6.88;;;;;;;10.54;100.00;100176.22;5018558;28;20461;-66
2023/10/24 05:32:34;;;;;;;7.50;6.78;;;;;;;10.52;100.00;100158.84;5021450;28;20050;-66
2023/10/24 05:34:59;;;;;;;7.50;6.80;;;;;;;10.56;100.00;100168.06;5014488;28;20399;-67
2023/10/24 05:37:24;;;;;;;7.55;6.75;;;;;;;10.55;100.00;100172.56;5022929;28;20033;-67
2023/10/24 05:39:50;;;;;;;7.72;6.97;;;;;;;10.54;100.00;100165.63;5022466;28;20088;-67
2023/10/24 05:42:15;;;;;;;7.60;6.90;;;;;;;10.54;100.00;100164.78;5014487;28;20488;-67
2023/10/24 05:44:40;;;;;;;7.45;6.75;;;;;;;10.52;100.00;100150.88;5014791;28;20160;-66
2023/10/24 05:47:06;;;;;;;7.25;6.60;;;;;;;10.56;100.00;100149.50;5014571;28;20083;-66
2023/10/24 05:49:32;;;;;;;7.40;6.53;;;;;;;10.57;100.00;100148.47;5022738;28;20028;-66
2023/10/24 05:51:57;;;;;;;7.18;6.35;;;;;;;10.56;100.00;100157.47;5017639;28;20032;-66
2023/10/24 05:54:22;;;;;;;6.88;6.28;;;;;;;10.55;100.00;100155.81;5022957;28;20026;-67
2023/10/24 05:56:47;;;;;;;7.28;6.38;;;;;;;10.55;100.00;100153.16;5016605;28;20034;-67
2023/10/24 05:59:13;;;;;;;6.93;6.22;;;;;;;10.55;100.00;100161.13;5027556;28;20037;-66
2023/10/24 06:01:38;;;;;;;7.95;6.20;;;;;;;10.56;100.00;100168.06;5015507;28;20029;-66
2023/10/24 06:04:03;;;;;;;7.38;6.68;;;;;;;10.54;100.00;100165.63;5020814;28;20046;-66
2023/10/24 06:06:29;;;;;;;7.05;6.35;;;;;;;10.54;100.00;100173.56;5019736;28;20033;-66
2023/10/24 06:08:54;;;;;;;7.47;6.38;;;;;;;10.55;100.00;100177.06;5016372;28;20029;-66
2023/10/24 06:11:19;;;;;;;7.47;6.13;;;;;;;10.49;100.00;100167.19;5017251;28;20045;-67
2023/10/24 06:13:44;;;;;;;6.30;5.70;;;;;;;10.54;100.00;100191.34;5023412;28;20025;-67
2023/10/24 06:16:11;;;;;;;6.93;6.22;;;;;;;10.49;100.00;100183.13;5011233;28;20037;-67
2023/10/24 06:18:37;;;;;;;7.78;5.93;;;;;;;10.46;100.00;100180.84;5015181;28;20037;-67
2023/10/24 06:21:06;;;;;;;7.45;5.80;;;;;;;10.52;100.00;100188.06;5017329;28;20038;-66
2023/10/24 06:23:33;;;;;;;7.88;5.78;;;;;;;10.52;100.00;100194.19;5022337;28;20030;-66
2023/10/24 06:25:59;;;;;;;5.90;5.30;;;;;;;10.53;100.00;100184.38;5016169;28;20103;-67
2023/10/24 06:28:25;;;;;;;7.35;5.25;;;;;;;10.52;100.00;100178.25;5026407;28;20543;-66
2023/10/24 06:31:02;;;;;;;5.90;5.30;;;;;;;10.52;100.00;100167.63;5022709;28;20034;-66
2023/10/24 06:33:29;;;;;;;7.10;5.20;;;;;;;10.53;100.00;100160.50;5020115;28;20062;-66
2023/10/24 06:35:55;;;;;;;7.07;5.70;;;;;;;10.52;100.00;100158.84;5016603;28;20499;-66
2023/10/24 06:38:20;;;;;;;6.93;5.38;;;;;;;10.53;100.00;100169.28;5022183;28;20028;-66
2023/10/24 06:40:46;;;;;;;5.97;5.30;;;;;;;10.54;100.00;100170.09;5017577;28;20041;-66
2023/10/24 06:43:12;;;;;;;6.30;5.57;;;;;;;10.54;100.00;100162.13;5020610;28;20437;-66
2023/10/24 06:45:38;;;;;;;6.78;5.65;;;;;;;10.54;100.00;100175.41;5018759;28;20090;-66
2023/10/24 06:48:06;;;;;;;8.20;5.95;;;;;;;10.54;100.00;100192.16;5031538;28;20029;-66
2023/10/24 06:50:32;;;;;;;7.07;5.72;;;;;;;10.57;100.00;100200.75;5036307;28;20096;-67
2023/10/24 06:52:57;;;;;;;7.13;5.70;;;;;;;10.59;100.00;100217.31;5008773;28;20141;-66
2023/10/24 06:55:22;;;;;;;7.00;6.10;;;;;;;10.58;100.00;100224.47;5019947;28;20033;-66
2023/10/24 06:57:47;;;;;;;8.18;6.22;;;;;;;10.57;100.00;100217.50;5018781;28;20037;-66
2023/10/24 07:00:13;;;;;;;9.02;5.88;;;;;;;10.61;100.00;100217.97;5018651;28;20057;-66
2023/10/24 07:02:39;;;;;;;6.18;5.57;;;;;;;10.60;100.00;100216.31;5017905;28;20018;-67
2023/10/24 07:05:05;;;;;;;9.90;6.30;;;;;;;10.59;100.00;100194.25;5018435;28;20375;-67
2023/10/24 07:07:30;;;;;;;7.72;6.28;;;;;;;10.57;100.00;100190.97;5020354;28;20561;-66
2023/10/24 07:09:55;;;;;;;7.40;6.30;;;;;;;10.55;100.00;100188.50;5013476;28;20072;-66
2023/10/24 07:12:20;;;;;;;9.55;6.22;;;;;;;10.59;100.00;100188.13;5014671;28;20484;-66
2023/10/24 07:14:50;;;;;;;8.60;7.13;;;;;;;10.61;100.00;100186.09;5017796;28;20030;-66
2023/10/24 07:17:16;;;;;;;8.30;7.35;;;;;;;10.62;100.00;100193.06;5022210;28;20029;-66
2023/10/24 07:19:42;;;;;;;10.50;7.40;;;;;;;10.65;100.00;100190.03;5014502;28;20131;-66
2023/10/24 07:22:07;;;;;;;10.40;6.90;;;;;;;10.68;100.00;100179.03;5012558;28;20567;-66
2023/10/24 07:24:32;;;;;;;8.07;7.13;;;;;;;10.69;100.00;100178.84;5019332;28;20041;-67
2023/10/24 07:26:57;;;;;;;10.63;7.50;;;;;;;10.71;100.00;100178.69;5033958;28;20025;-66
2023/10/24 07:29:26;;;;;;;9.13;7.82;;;;;;;10.71;100.00;100182.16;5030310;28;20022;-66
2023/10/24 07:31:52;;;;;;;14.25;8.38;;;;;;;10.74;100.00;100167.69;5024618;28;20088;-66
2023/10/24 07:34:17;;;;;;;12.50;8.60;;;;;;;10.76;100.00;100179.75;5021309;28;20034;-66
2023/10/24 07:36:42;;;;;;;13.40;9.10;;;;;;;10.79;100.00;100171.41;5016109;28;20018;-67
2023/10/24 07:39:07;;;;;;;10.55;8.85;;;;;;;10.80;100.00;100182.84;5009840;28;20036;-67
2023/10/24 07:41:33;;;;;;;10.85;8.35;;;;;;;10.83;100.00;100187.78;5013959;28;20545;-66
2023/10/24 07:43:58;;;;;;;10.15;8.90;;;;;;;10.83;100.00;100191.25;5022120;28;20049;-66
2023/10/24 07:46:23;;;;;;;13.00;9.52;;;;;;;10.85;100.00;100183.94;5026720;28;20093;-66
2023/10/24 07:48:51;;;;;;;11.75;8.60;;;;;;;10.86;100.00;100184.75;5016376;28;20021;-66
2023/10/24 07:51:16;;;;;;;12.68;8.75;;;;;;;10.89;100.00;100176.41;5019710;28;20051;-66
2023/10/24 07:53:42;;;;;;;11.30;8.05;;;;;;;10.92;100.00;100183.16;5029723;28;20061;-66
2023/10/24 07:56:07;;;;;;;9.98;8.40;;;;;;;10.91;100.00;100176.22;5020556;28;20033;-66
2023/10/24 07:58:32;;;;;;;9.80;8.15;;;;;;;10.98;100.00;100177.09;5013692;28;20022;-66
2023/10/24 08:00:58;;;;;;;13.85;8.40;;;;;;;10.95;100.00;100161.53;5008878;28;20380;-67
2023/10/24 08:03:23;;;;;;;11.73;8.45;;;;;;;11.01;100.00;100171.44;5011825;28;20032;-66
2023/10/24 08:05:48;;;;;;;9.95;8.68;;;;;;;11.01;100.00;100166.94;5023302;28;20104;-66
2023/10/24 08:08:14;;;;;;;13.40;8.68;;;;;;;11.10;100.00;100162.31;5011554;28;20025;-67
2023/10/24 08:10:39;;;;;;;10.90;8.07;;;;;;;11.12;100.00;100161.09;5014224;28;20013;-67
2023/10/24 08:13:04;;;;;;;11.05;8.77;;;;;;;11.14;100.00;100152.94;5012435;28;20014;-67
2023/10/24 08:15:30;;;;;;;11.82;8.70;;;;;;;11.13;100.00;100156.59;5010736;28;20101;-67
2023/10/24 08:17:55;;;;;;;12.68;8.93;;;;;;;11.15;100.00;100163.38;5025966;28;20069;-66
2023/10/24 08:20:20;;;;;;;13.35;8.57;;;;;;;11.17;100.00;100177.28;5021127;28;20026;-67
2023/10/24 08:22:46;;;;;;;12.15;8.02;;;;;;;11.18;100.00;100178.13;5007801;28;20021;-66
2023/10/24 08:25:12;;;;;;;11.13;7.97;;;;;;;11.20;100.00;100178.75;5020190;28;20117;-66
2023/10/24 08:27:38;;;;;;;11.45;8.27;;;;;;;11.23;100.00;100173.03;5023134;28;20026;-66
2023/10/24 08:30:04;;;;;;;12.45;8.85;;;;;;;11.26;100.00;100175.31;5023634;28;20026;-67
2023/10/24 08:32:29;;;;;;;9.75;8.07;;;;;;;11.32;100.00;100169.25;5022012;28;20674;-67
2023/10/24 08:34:55;;;;;;;10.10;8.43;;;;;;;11.36;100.00;100169.69;5013692;28;20112;-67
2023/10/24 08:37:20;;;;;;;12.98;8.25;;;;;;;11.38;100.00;100176.47;5013791;28;20487;-66
2023/10/24 08:39:46;;;;;;;13.40;8.60;;;;;;;11.43;100.00;100181.19;5014362;28;20108;-66
2023/10/24 08:42:13;;;;;;;10.07;8.45;;;;;;;11.48;100.00;100179.59;5026990;28;20027;-66
2023/10/24 08:44:40;;;;;;;12.13;8.43;;;;;;;11.55;100.00;100198.25;5011576;28;20022;-67
2023/10/24 08:47:06;;;;;;;12.60;8.65;;;;;;;11.61;100.00;100207.31;5019193;28;20104;-67
2023/10/24 08:49:32;;;;;;;11.23;8.07;;;;;;;11.62;100.00;100206.31;5015000;28;20025;-67
2023/10/24 08:51:57;;;;;;;13.80;8.05;;;;;;;11.73;100.00;100214.56;5011698;28;20026;-67
2023/10/24 08:54:22;;;;;;;8.50;7.25;;;;;;;11.82;100.00;100220.59;5024970;28;20026;-67
2023/10/24 08:56:50;;;;;;;11.77;7.47;;;;;;;11.90;100.00;100214.31;5019325;28;20399;-67
2023/10/24 08:59:16;;;;;;;8.43;6.82;;;;;;;11.92;100.00;100212.28;5021877;28;20518;-67
2023/10/24 09:01:43;;;;;;;8.40;6.47;;;;;;;11.91;100.00;100210.66;5020417;28;20025;-67
2023/10/24 09:04:08;;;;;;;8.73;6.22;;;;;;;11.88;100.00;100206.53;5015136;28;20034;-66
2023/10/24 09:06:34;;;;;;;9.20;6.32;;;;;;;11.81;100.00;100204.84;5028120;28;20133;-67
2023/10/24 09:09:00;;;;;;;7.28;5.90;;;;;;;11.79;100.00;100215.66;5016265;28;20053;-66
2023/10/24 09:11:25;;;;;;;8.25;5.63;;;;;;;11.77;100.00;100199.03;5022006;28;20043;-66
2023/10/24 09:13:52;;;;;;;9.95;6.00;;;;;;;11.75;100.00;100196.59;5018656;28;20036;-67
2023/10/24 09:16:17;;;;;;;7.78;5.78;;;;;;;11.75;99.92;100180.63;5020099;28;20806;-66
2023/10/24 09:18:42;;;;;;;6.65;5.30;;;;;;;11.73;99.65;100187.97;5020772;28;20610;-67
2023/10/24 09:21:09;;;;;;;7.30;5.45;;;;;;;11.70;99.47;100196.34;5012608;28;20033;-66
2023/10/24 09:23:37;;;;;;;6.80;5.00;;;;;;;11.71;99.68;100194.50;5021531;28;20529;-67
2023/10/24 09:26:04;;;;;;;8.40;5.32;;;;;;;11.70;99.27;100185.72;5015947;28;20436;-66
2023/10/24 09:28:30;;;;;;;10.07;5.78;;;;;;;11.70;99.40;100177.72;5017271;28;20026;-67
2023/10/24 09:31:00;;;;;;;8.55;5.60;;;;;;;11.73;99.45;100184.50;5014899;28;20079;-67
2023/10/24 09:33:27;;;;;;;6.05;5.10;;;;;;;11.73;99.52;100177.34;5026368;28;20605;-66
2023/10/24 09:35:52;;;;;;;8.75;5.30;;;;;;;11.76;99.46;100179.59;5016843;28;20061;-66
2023/10/24 09:38:21;;;;;;;8.75;5.18;;;;;;;11.76;99.23;100179.59;5019518;28;20101;-66
2023/10/24 09:40:46;;;;;;;6.00;5.37;;;;;;;11.83;99.59;100174.34;5018288;28;20026;-67
2023/10/24 09:43:20;;;;;;;7.35;5.45;;;;;;;11.89;99.71;100180.75;5018969;28;20569;-67
2023/10/24 09:45:46;;;;;;;7.47;5.35;;;;;;;11.93;99.55;100177.50;5021582;28;20034;-67
2023/10/24 09:48:14;;;;;;;8.57;5.95;;;;;;;11.99;99.62;100183.88;5014132;28;20025;-67
2023/10/24 09:50:40;;;;;;;7.13;5.10;;;;;;;12.01;99.44;100184.50;5019679;28;20044;-67
2023/10/24 09:53:06;;;;;;;6.28;5.65;;;;;;;11.99;99.15;100174.06;5013066;28;20030;-66
2023/10/24 09:55:34;;;;;;;6.50;5.78;;;;;;;12.06;99.20;100185.56;5019181;28;20030;-67
2023/10/24 09:58:00;;;;;;;10.35;6.25;;;;;;;12.11;99.27;100169.00;5019687;28;20026;-67
2023/10/24 10:00:26;;;;;;;9.85;5.70;;;;;;;12.14;98.90;100167.78;5014403;28;20025;-66
2023/10/24 10:02:56;;;;;;;8.32;5.78;;;;;;;12.14;98.22;100168.59;5016641;28;20021;-67
2023/10/24 10:05:23;;;;;;;8.35;5.50;;;;;;;12.13;98.18;100172.28;5017111;28;20029;-67
2023/10/24 10:07:49;;;;;;;7.72;5.75;;;;;;;12.13;98.11;100169.63;5021058;28;20566;-66
2023/10/24 10:10:16;;;;;;;7.03;5.55;;;;;;;12.12;97.88;100167.97;5024235;28;20445;-66
2023/10/24 10:12:41;;;;;;;9.15;5.95;;;;;;;12.14;98.05;100162.44;5022215;28;20103;-67
2023/10/24 10:15:50;;;;;;;8.85;6.30;;;;;;;12.18;98.46;100163.72;5025272;28;20022;-67
2023/10/24 10:18:21;;;;;;;11.85;5.78;;;;;;;12.19;98.68;100170.69;5027169;28;20573;-67
2023/10/24 10:21:09;;;;;;;7.47;5.88;;;;;;;12.21;98.57;100171.31;5017758;28;20022;-67
2023/10/24 10:23:48;;;;;;;8.33;6.10;;;;;;;12.24;98.98;100173.56;5026789;28;20048;-67
2023/10/24 10:26:26;;;;;;;7.63;5.57;;;;;;;12.25;98.62;100177.88;5032895;28;20036;-67
2023/10/24 10:29:12;;;;;;;8.32;5.97;;;;;;;12.23;98.54;100188.72;5018214;28;20308;-67
2023/10/24 10:31:40;;;;;;;10.40;6.22;;;;;;;12.23;98.73;100177.25;5019449;28;20057;-67
2023/10/24 10:34:06;;;;;;;10.38;5.68;;;;;;;12.24;98.62;100184.22;5021508;28;20033;-66
2023/10/24 10:36:31;;;;;;;10.40;5.78;;;;;;;12.21;98.55;100173.97;5019572;28;20021;-67
2023/10/24 10:39:00;;;;;;;7.55;6.00;;;;;;;12.20;98.58;100178.47;5027259;28;20095;-67
2023/10/24 10:41:26;;;;;;;8.23;5.72;;;;;;;12.20;98.95;100170.50;5024960;28;20033;-67
2023/10/24 10:44:00;;;;;;;9.88;6.65;;;;;;;12.21;98.89;100171.31;5025529;28;20137;-67
2023/10/24 10:46:27;;;;;;;8.00;5.95;;;;;;;12.17;98.90;100162.09;5018248;28;20027;-67
2023/10/24 10:48:59;;;;;;;8.88;5.88;;;;;;;12.17;98.83;100152.25;5025242;28;20402;-67
2023/10/24 10:51:36;;;;;;;9.75;6.30;;;;;;;12.17;99.08;100162.09;5014698;28;20534;-67
2023/10/24 10:54:30;;;;;;;9.00;6.13;;;;;;;12.10;99.32;100157.53;5013441;28;20165;-67
2023/10/24 10:57:02;;;;;;;9.25;6.53;;;;;;;12.06;100.00;100156.28;5014554;28;20165;-67
2023/10/24 10:59:43;;;;;;;9.70;6.75;;;;;;;12.02;100.00;100163.00;5018534;28;20028;-67
2023/10/24 11:02:17;;;;;;;9.55;6.20;;;;;;;11.97;100.00;100151.31;5019732;28;20034;-67
2023/10/24 11:04:42;;;;;;;10.95;6.80;;;;;;;11.89;100.00;100152.31;5019489;28;20438;-68
2023/10/24 11:07:09;;;;;;;9.27;6.65;;;;;;;11.82;100.00;100159.41;5016821;28;20109;-68
2023/10/24 11:09:37;;;;;;;11.43;7.32;;;;;;;11.75;100.00;100159.34;5011402;28;20022;-68